sensor_id;sensor_type;location;lat;lon;timestamp;pressure;altitude;pressure_sealevel;temperature;humidity
50672;BME280;46021;55.882;37.654;2022-08-30T00:00:55;98756.13;;;18.91;72.36
50672;BME280;46021;55.882;37.654;2022-08-30T00:03:28;98759.84;;;18.88;72.04
50672;BME280;46021;55.882;37.654;2022-08-30T00:05:55;98761.25;;;18.92;73.01
50672;BME280;46021;55.882;37.654;2022-08-30T00:08:22;98757.56;;;18.83;72.63
50672;BME280;46021;55.882;37.654;2022-08-30T00:10:48;98757.06;;;18.78;72.89
50672;BME280;46021;55.882;37.654;2022-08-30T00:13:16;98759.22;;;18.73;73.59
50672;BME280;46021;55.882;37.654;2022-08-30T00:15:43;98758.28;;;18.74;73.10
50672;BME280;46021;55.882;37.654;2022-08-30T00:18:10;98748.66;;;18.73;73.07
50672;BME280;46021;55.882;37.654;2022-08-30T00:20:37;98752.88;;;18.76;72.55
50672;BME280;46021;55.882;37.654;2022-08-30T00:23:04;98748.56;;;18.75;73.03
50672;BME280;46021;55.882;37.654;2022-08-30T00:25:31;98749.53;;;18.74;73.22
50672;BME280;46021;55.882;37.654;2022-08-30T00:27:58;98754.94;;;18.72;72.84
50672;BME280;46021;55.882;37.654;2022-08-30T00:30:25;98748.34;;;18.66;73.73
50672;BME280;46021;55.882;37.654;2022-08-30T00:32:51;98758.91;;;18.66;73.72
50672;BME280;46021;55.882;37.654;2022-08-30T00:35:20;98762.38;;;18.67;73.46
50672;BME280;46021;55.882;37.654;2022-08-30T00:37:47;98765.13;;;18.65;73.72
50672;BME280;46021;55.882;37.654;2022-08-30T00:40:17;98762.75;;;18.62;73.59
50672;BME280;46021;55.882;37.654;2022-08-30T00:42:45;98757.47;;;18.62;73.53
50672;BME280;46021;55.882;37.654;2022-08-30T00:45:14;98757.38;;;18.53;74.45
50672;BME280;46021;55.882;37.654;2022-08-30T00:47:41;98754.59;;;18.54;74.38
50672;BME280;46021;55.882;37.654;2022-08-30T00:50:10;98746.69;;;18.43;75.08
50672;BME280;46021;55.882;37.654;2022-08-30T00:52:40;98752.44;;;18.48;74.62
50672;BME280;46021;55.882;37.654;2022-08-30T00:55:09;98753.78;;;18.42;75.41
50672;BME280;46021;55.882;37.654;2022-08-30T00:57:39;98747.53;;;18.43;74.57
50672;BME280;46021;55.882;37.654;2022-08-30T01:00:07;98743.81;;;18.35;75.36
50672;BME280;46021;55.882;37.654;2022-08-30T01:02:34;98747.06;;;18.38;74.89
50672;BME280;46021;55.882;37.654;2022-08-30T01:05:05;98742.88;;;18.36;75.64
50672;BME280;46021;55.882;37.654;2022-08-30T01:07:33;98743.00;;;18.34;75.55
50672;BME280;46021;55.882;37.654;2022-08-30T01:10:02;98737.00;;;18.32;75.42
50672;BME280;46021;55.882;37.654;2022-08-30T01:12:29;98734.47;;;18.30;75.43
50672;BME280;46021;55.882;37.654;2022-08-30T01:14:57;98739.88;;;18.29;75.51
50672;BME280;46021;55.882;37.654;2022-08-30T01:17:25;98740.09;;;18.26;75.52
50672;BME280;46021;55.882;37.654;2022-08-30T01:19:53;98729.81;;;18.23;75.90
50672;BME280;46021;55.882;37.654;2022-08-30T01:22:31;98729.94;;;18.21;75.58
50672;BME280;46021;55.882;37.654;2022-08-30T01:25:00;98726.47;;;18.21;75.73
50672;BME280;46021;55.882;37.654;2022-08-30T01:27:29;98734.72;;;18.16;75.90
50672;BME280;46021;55.882;37.654;2022-08-30T01:29:57;98734.97;;;18.13;75.94
50672;BME280;46021;55.882;37.654;2022-08-30T01:32:27;98729.81;;;18.11;75.34
50672;BME280;46021;55.882;37.654;2022-08-30T01:34:54;98733.50;;;18.09;76.12
50672;BME280;46021;55.882;37.654;2022-08-30T01:37:25;98725.59;;;18.09;76.00
50672;BME280;46021;55.882;37.654;2022-08-30T01:39:54;98725.97;;;18.04;75.95
50672;BME280;46021;55.882;37.654;2022-08-30T01:42:21;98725.97;;;18.04;76.07
50672;BME280;46021;55.882;37.654;2022-08-30T01:44:47;98718.44;;;18.00;77.66
50672;BME280;46021;55.882;37.654;2022-08-30T01:47:15;98723.09;;;17.96;76.51
50672;BME280;46021;55.882;37.654;2022-08-30T01:49:43;98729.22;;;17.97;76.09
50672;BME280;46021;55.882;37.654;2022-08-30T01:52:11;98728.50;;;17.95;76.49
50672;BME280;46021;55.882;37.654;2022-08-30T01:54:40;98723.31;;;17.93;75.88
50672;BME280;46021;55.882;37.654;2022-08-30T01:57:08;98728.97;;;17.88;76.59
50672;BME280;46021;55.882;37.654;2022-08-30T01:59:36;98728.97;;;17.88;76.58
50672;BME280;46021;55.882;37.654;2022-08-30T02:02:04;98729.38;;;17.82;76.87
50672;BME280;46021;55.882;37.654;2022-08-30T02:04:31;98722.56;;;17.80;77.06
50672;BME280;46021;55.882;37.654;2022-08-30T02:06:58;98727.94;;;17.78;76.92
50672;BME280;46021;55.882;37.654;2022-08-30T02:09:25;98724.59;;;17.76;77.17
50672;BME280;46021;55.882;37.654;2022-08-30T02:11:51;98731.56;;;17.77;76.84
50672;BME280;46021;55.882;37.654;2022-08-30T02:14:18;98729.03;;;17.76;76.54
50672;BME280;46021;55.882;37.654;2022-08-30T02:16:45;98730.22;;;17.71;76.82
50672;BME280;46021;55.882;37.654;2022-08-30T02:19:13;98737.41;;;17.69;77.08
50672;BME280;46021;55.882;37.654;2022-08-30T02:21:40;98735.72;;;17.68;77.00
50672;BME280;46021;55.882;37.654;2022-08-30T02:24:06;98734.28;;;17.64;77.60
50672;BME280;46021;55.882;37.654;2022-08-30T02:26:33;98737.03;;;17.63;77.21
50672;BME280;46021;55.882;37.654;2022-08-30T02:29:02;98724.84;;;17.62;76.98
50672;BME280;46021;55.882;37.654;2022-08-30T02:31:30;98731.03;;;17.61;77.38
50672;BME280;46021;55.882;37.654;2022-08-30T02:33:57;98737.50;;;17.57;77.95
50672;BME280;46021;55.882;37.654;2022-08-30T02:36:24;98746.34;;;17.56;77.66
50672;BME280;46021;55.882;37.654;2022-08-30T02:38:51;98745.41;;;17.57;77.48
50672;BME280;46021;55.882;37.654;2022-08-30T02:41:18;98749.00;;;17.56;77.55
50672;BME280;46021;55.882;37.654;2022-08-30T02:43:45;98743.84;;;17.54;77.61
50672;BME280;46021;55.882;37.654;2022-08-30T02:46:12;98748.28;;;17.53;77.50
50672;BME280;46021;55.882;37.654;2022-08-30T02:48:38;98746.63;;;17.52;77.52
50672;BME280;46021;55.882;37.654;2022-08-30T02:51:08;98745.13;;;17.48;78.33
50672;BME280;46021;55.882;37.654;2022-08-30T02:53:35;98757.38;;;17.49;77.74
50672;BME280;46021;55.882;37.654;2022-08-30T02:56:02;98748.75;;;17.47;78.07
50672;BME280;46021;55.882;37.654;2022-08-30T02:58:29;98744.41;;;17.46;77.65
50672;BME280;46021;55.882;37.654;2022-08-30T03:00:56;98743.25;;;17.50;77.44
50672;BME280;46021;55.882;37.654;2022-08-30T03:03:23;98749.25;;;17.52;77.41
50672;BME280;46021;55.882;37.654;2022-08-30T03:05:49;98741.34;;;17.52;77.42
50672;BME280;46021;55.882;37.654;2022-08-30T03:08:16;98748.28;;;17.53;77.96
50672;BME280;46021;55.882;37.654;2022-08-30T03:10:43;98744.69;;;17.54;77.49
50672;BME280;46021;55.882;37.654;2022-08-30T03:13:09;98755.47;;;17.51;77.84
50672;BME280;46021;55.882;37.654;2022-08-30T03:15:37;98743.00;;;17.53;77.91
50672;BME280;46021;55.882;37.654;2022-08-30T03:18:05;98744.22;;;17.61;77.33
50672;BME280;46021;55.882;37.654;2022-08-30T03:20:32;98737.25;;;17.60;77.88
50672;BME280;46021;55.882;37.654;2022-08-30T03:22:59;98744.56;;;17.67;77.88
50672;BME280;46021;55.882;37.654;2022-08-30T03:25:28;98753.69;;;17.74;77.62
50672;BME280;46021;55.882;37.654;2022-08-30T03:27:54;98753.25;;;17.81;77.04
50672;BME280;46021;55.882;37.654;2022-08-30T03:30:21;98761.88;;;17.83;77.48
50672;BME280;46021;55.882;37.654;2022-08-30T03:32:48;98759.16;;;17.96;77.25
50672;BME280;46021;55.882;37.654;2022-08-30T03:35:15;98758.81;;;18.11;77.42
50672;BME280;46021;55.882;37.654;2022-08-30T03:37:41;98761.56;;;18.33;76.66
50672;BME280;46021;55.882;37.654;2022-08-30T03:40:09;98768.25;;;18.59;76.52
50672;BME280;46021;55.882;37.654;2022-08-30T03:42:37;98745.69;;;18.78;75.67
50672;BME280;46021;55.882;37.654;2022-08-30T03:45:05;98749.19;;;19.11;75.61
50672;BME280;46021;55.882;37.654;2022-08-30T03:47:31;98759.03;;;19.41;74.84
50672;BME280;46021;55.882;37.654;2022-08-30T03:49:58;98762.09;;;19.78;73.36
50672;BME280;46021;55.882;37.654;2022-08-30T03:52:25;98761.63;;;20.15;72.03
50672;BME280;46021;55.882;37.654;2022-08-30T03:54:52;98764.25;;;20.56;72.09
50672;BME280;46021;55.882;37.654;2022-08-30T03:57:18;98761.44;;;20.88;70.30
50672;BME280;46021;55.882;37.654;2022-08-30T03:59:45;98759.66;;;20.98;68.45
50672;BME280;46021;55.882;37.654;2022-08-30T04:02:12;98757.25;;;21.15;68.30
50672;BME280;46021;55.882;37.654;2022-08-30T04:04:39;98755.34;;;21.27;67.12
50672;BME280;46021;55.882;37.654;2022-08-30T04:07:05;98764.00;;;21.48;66.61
50672;BME280;46021;55.882;37.654;2022-08-30T04:09:32;98761.47;;;21.47;66.05
50672;BME280;46021;55.882;37.654;2022-08-30T04:11:58;98767.06;;;21.63;65.57
50672;BME280;46021;55.882;37.654;2022-08-30T04:14:25;98758.09;;;21.64;65.26
50672;BME280;46021;55.882;37.654;2022-08-30T04:16:52;98756.97;;;21.76;64.62
50672;BME280;46021;55.882;37.654;2022-08-30T04:19:19;98758.63;;;21.77;64.43
50672;BME280;46021;55.882;37.654;2022-08-30T04:21:45;98761.25;;;21.97;64.56
50672;BME280;46021;55.882;37.654;2022-08-30T04:24:14;98773.25;;;22.01;63.47
50672;BME280;46021;55.882;37.654;2022-08-30T04:26:41;98764.72;;;22.07;63.71
50672;BME280;46021;55.882;37.654;2022-08-30T04:29:08;98772.22;;;22.22;63.58
50672;BME280;46021;55.882;37.654;2022-08-30T04:31:36;98772.22;;;22.59;62.72
50672;BME280;46021;55.882;37.654;2022-08-30T04:34:03;98764.88;;;22.89;62.37
50672;BME280;46021;55.882;37.654;2022-08-30T04:36:30;98763.72;;;23.19;61.32
50672;BME280;46021;55.882;37.654;2022-08-30T04:38:56;98764.13;;;23.24;60.57
50672;BME280;46021;55.882;37.654;2022-08-30T04:41:23;98770.13;;;23.08;59.92
50672;BME280;46021;55.882;37.654;2022-08-30T04:43:49;98759.25;;;23.20;59.66
50672;BME280;46021;55.882;37.654;2022-08-30T04:46:17;98763.94;;;23.44;59.38
50672;BME280;46021;55.882;37.654;2022-08-30T04:48:44;98758.13;;;23.66;59.08
50672;BME280;46021;55.882;37.654;2022-08-30T04:51:13;98756.34;;;23.93;58.09
50672;BME280;46021;55.882;37.654;2022-08-30T04:53:40;98763.81;;;23.89;57.73
50672;BME280;46021;55.882;37.654;2022-08-30T04:56:09;98756.84;;;23.97;57.60
50672;BME280;46021;55.882;37.654;2022-08-30T04:58:36;98755.47;;;24.10;57.53
50672;BME280;46021;55.882;37.654;2022-08-30T05:01:03;98755.56;;;24.35;57.02
50672;BME280;46021;55.882;37.654;2022-08-30T05:03:29;98756.44;;;24.86;56.94
50672;BME280;46021;55.882;37.654;2022-08-30T05:05:56;98768.75;;;24.87;55.07
50672;BME280;46021;55.882;37.654;2022-08-30T05:08:23;98763.50;;;25.20;55.12
50672;BME280;46021;55.882;37.654;2022-08-30T05:10:51;98765.88;;;25.32;54.05
50672;BME280;46021;55.882;37.654;2022-08-30T05:13:20;98769.53;;;25.63;53.65
50672;BME280;46021;55.882;37.654;2022-08-30T05:15:47;98760.66;;;25.87;52.49
50672;BME280;46021;55.882;37.654;2022-08-30T05:18:14;98763.50;;;26.11;52.28
50672;BME280;46021;55.882;37.654;2022-08-30T05:20:41;98762.44;;;26.20;51.41
50672;BME280;46021;55.882;37.654;2022-08-30T05:23:08;98763.69;;;26.49;50.94
50672;BME280;46021;55.882;37.654;2022-08-30T05:25:37;98754.94;;;26.63;50.37
50672;BME280;46021;55.882;37.654;2022-08-30T05:28:04;98762.25;;;27.00;50.59
50672;BME280;46021;55.882;37.654;2022-08-30T05:30:32;98754.63;;;27.20;49.22
50672;BME280;46021;55.882;37.654;2022-08-30T05:32:59;98760.72;;;27.52;48.87
50672;BME280;46021;55.882;37.654;2022-08-30T05:35:26;98762.09;;;27.86;48.33
50672;BME280;46021;55.882;37.654;2022-08-30T05:37:53;98758.25;;;28.33;47.51
50672;BME280;46021;55.882;37.654;2022-08-30T05:40:20;98761.88;;;28.55;46.68
50672;BME280;46021;55.882;37.654;2022-08-30T05:42:47;98760.56;;;28.66;46.02
50672;BME280;46021;55.882;37.654;2022-08-30T05:45:14;98760.28;;;28.61;45.71
50672;BME280;46021;55.882;37.654;2022-08-30T05:47:41;98770.66;;;28.34;43.79
50672;BME280;46021;55.882;37.654;2022-08-30T05:50:08;98765.94;;;27.69;44.93
50672;BME280;46021;55.882;37.654;2022-08-30T05:52:36;98772.88;;;26.46;46.78
50672;BME280;46021;55.882;37.654;2022-08-30T05:55:03;98763.22;;;25.56;48.19
50672;BME280;46021;55.882;37.654;2022-08-30T05:57:32;98773.09;;;24.80;49.37
50672;BME280;46021;55.882;37.654;2022-08-30T06:00:00;98771.78;;;24.16;51.41
50672;BME280;46021;55.882;37.654;2022-08-30T06:02:26;98772.69;;;23.36;53.19
50672;BME280;46021;55.882;37.654;2022-08-30T06:04:53;98771.44;;;22.94;54.02
50672;BME280;46021;55.882;37.654;2022-08-30T06:07:19;98779.81;;;22.72;54.62
50672;BME280;46021;55.882;37.654;2022-08-30T06:09:46;98780.53;;;22.46;55.61
50672;BME280;46021;55.882;37.654;2022-08-30T06:12:13;98772.34;;;22.30;55.92
50672;BME280;46021;55.882;37.654;2022-08-30T06:14:43;98776.66;;;22.21;55.77
50672;BME280;46021;55.882;37.654;2022-08-30T06:17:10;98782.88;;;22.12;55.94
50672;BME280;46021;55.882;37.654;2022-08-30T06:19:37;98785.41;;;21.94;56.89
50672;BME280;46021;55.882;37.654;2022-08-30T06:22:03;98786.00;;;21.88;57.30
50672;BME280;46021;55.882;37.654;2022-08-30T06:24:30;98785.16;;;21.87;57.05
50672;BME280;46021;55.882;37.654;2022-08-30T06:26:56;98783.75;;;21.93;57.20
50672;BME280;46021;55.882;37.654;2022-08-30T06:29:23;98780.69;;;21.88;57.30
50672;BME280;46021;55.882;37.654;2022-08-30T06:31:50;98779.41;;;21.92;57.28
50672;BME280;46021;55.882;37.654;2022-08-30T06:34:19;98785.41;;;21.94;57.69
50672;BME280;46021;55.882;37.654;2022-08-30T06:36:47;98788.75;;;21.96;57.48
50672;BME280;46021;55.882;37.654;2022-08-30T06:39:14;98793.78;;;21.99;57.33
50672;BME280;46021;55.882;37.654;2022-08-30T06:41:41;98782.88;;;22.02;57.56
50672;BME280;46021;55.882;37.654;2022-08-30T06:44:23;98782.31;;;22.08;57.39
50672;BME280;46021;55.882;37.654;2022-08-30T06:46:49;98790.66;;;22.13;57.07
50672;BME280;46021;55.882;37.654;2022-08-30T06:49:16;98781.72;;;22.14;57.45
50672;BME280;46021;55.882;37.654;2022-08-30T06:51:43;98787.13;;;22.23;57.01
50672;BME280;46021;55.882;37.654;2022-08-30T06:54:10;98794.28;;;22.32;57.11
50672;BME280;46021;55.882;37.654;2022-08-30T06:56:37;98787.81;;;22.44;56.78
50672;BME280;46021;55.882;37.654;2022-08-30T06:59:04;98781.91;;;22.50;56.53
50672;BME280;46021;55.882;37.654;2022-08-30T07:01:30;98789.06;;;22.68;56.31
50672;BME280;46021;55.882;37.654;2022-08-30T07:03:58;98778.56;;;22.76;56.18
50672;BME280;46021;55.882;37.654;2022-08-30T07:06:26;98782.59;;;22.80;55.60
50672;BME280;46021;55.882;37.654;2022-08-30T07:08:54;98783.16;;;22.74;55.70
50672;BME280;46021;55.882;37.654;2022-08-30T07:11:25;98779.53;;;22.75;55.73
50672;BME280;46021;55.882;37.654;2022-08-30T07:13:52;98778.25;;;22.79;55.53
50672;BME280;46021;55.882;37.654;2022-08-30T07:16:19;98788.97;;;22.87;55.35
50672;BME280;46021;55.882;37.654;2022-08-30T07:18:48;98780.53;;;22.92;55.68
50672;BME280;46021;55.882;37.654;2022-08-30T07:21:23;98771.97;;;22.98;55.10
50672;BME280;46021;55.882;37.654;2022-08-30T07:23:50;98780.13;;;23.14;54.63
50672;BME280;46021;55.882;37.654;2022-08-30T07:26:21;98783.78;;;23.31;54.50
50672;BME280;46021;55.882;37.654;2022-08-30T07:28:48;98782.41;;;23.45;54.08
50672;BME280;46021;55.882;37.654;2022-08-30T07:31:17;98786.28;;;23.51;53.78
50672;BME280;46021;55.882;37.654;2022-08-30T07:33:44;98778.97;;;23.53;53.24
50672;BME280;46021;55.882;37.654;2022-08-30T07:36:11;98779.59;;;23.47;53.54
50672;BME280;46021;55.882;37.654;2022-08-30T07:38:38;98780.22;;;23.41;53.80
50672;BME280;46021;55.882;37.654;2022-08-30T07:41:05;98784.78;;;23.48;53.70
50672;BME280;46021;55.882;37.654;2022-08-30T07:43:33;98781.88;;;23.60;53.53
50672;BME280;46021;55.882;37.654;2022-08-30T07:46:01;98782.97;;;23.75;53.03
50672;BME280;46021;55.882;37.654;2022-08-30T07:48:28;98772.91;;;23.79;52.68
50672;BME280;46021;55.882;37.654;2022-08-30T07:50:55;98779.09;;;23.87;52.87
50672;BME280;46021;55.882;37.654;2022-08-30T07:53:21;98782.91;;;23.85;52.62
50672;BME280;46021;55.882;37.654;2022-08-30T07:55:48;98787.94;;;23.88;52.26
50672;BME280;46021;55.882;37.654;2022-08-30T07:58:15;98792.66;;;24.02;52.31
50672;BME280;46021;55.882;37.654;2022-08-30T08:00:43;98787.59;;;24.17;51.90
50672;BME280;46021;55.882;37.654;2022-08-30T08:03:10;98775.28;;;24.16;51.38
50672;BME280;46021;55.882;37.654;2022-08-30T08:05:38;98787.16;;;24.30;51.26
50672;BME280;46021;55.882;37.654;2022-08-30T08:08:04;98785.00;;;24.25;51.11
50672;BME280;46021;55.882;37.654;2022-08-30T08:10:31;98790.50;;;24.32;51.08
50672;BME280;46021;55.882;37.654;2022-08-30T08:12:58;98784.53;;;24.38;51.35
50672;BME280;46021;55.882;37.654;2022-08-30T08:15:25;98789.66;;;24.58;50.99
50672;BME280;46021;55.882;37.654;2022-08-30T08:17:52;98785.34;;;24.65;50.48
50672;BME280;46021;55.882;37.654;2022-08-30T08:20:19;98793.41;;;24.81;50.50
50672;BME280;46021;55.882;37.654;2022-08-30T08:22:46;98780.78;;;24.92;50.18
50672;BME280;46021;55.882;37.654;2022-08-30T08:25:12;98782.44;;;24.93;49.67
50672;BME280;46021;55.882;37.654;2022-08-30T08:27:40;98784.28;;;24.92;49.75
50672;BME280;46021;55.882;37.654;2022-08-30T08:30:08;98775.78;;;24.88;50.09
50672;BME280;46021;55.882;37.654;2022-08-30T08:32:35;98780.47;;;25.11;49.43
50672;BME280;46021;55.882;37.654;2022-08-30T08:35:02;98781.38;;;25.28;49.02
50672;BME280;46021;55.882;37.654;2022-08-30T08:37:29;98777.38;;;25.40;48.61
50672;BME280;46021;55.882;37.654;2022-08-30T08:39:56;98781.22;;;25.62;48.26
50672;BME280;46021;55.882;37.654;2022-08-30T08:42:27;98785.38;;;25.73;47.65
50672;BME280;46021;55.882;37.654;2022-08-30T08:45:01;98778.69;;;25.85;46.79
50672;BME280;46021;55.882;37.654;2022-08-30T08:47:36;98790.16;;;26.19;46.02
50672;BME280;46021;55.882;37.654;2022-08-30T08:50:07;98785.75;;;27.13;45.74
50672;BME280;46021;55.882;37.654;2022-08-30T08:52:44;98779.22;;;28.74;42.62
50672;BME280;46021;55.882;37.654;2022-08-30T08:55:30;98779.63;;;30.70;41.62
50672;BME280;46021;55.882;37.654;2022-08-30T08:57:57;98780.25;;;31.88;38.34
50672;BME280;46021;55.882;37.654;2022-08-30T09:00:24;98777.22;;;32.49;36.46
50672;BME280;46021;55.882;37.654;2022-08-30T09:02:56;98777.03;;;33.34;33.76
50672;BME280;46021;55.882;37.654;2022-08-30T09:05:25;98784.06;;;34.36;33.39
50672;BME280;46021;55.882;37.654;2022-08-30T09:07:56;98782.53;;;34.59;30.33
50672;BME280;46021;55.882;37.654;2022-08-30T09:10:24;98776.69;;;34.43;31.15
50672;BME280;46021;55.882;37.654;2022-08-30T09:12:52;98777.31;;;34.02;32.18
50672;BME280;46021;55.882;37.654;2022-08-30T09:15:21;98786.53;;;34.56;31.87
50672;BME280;46021;55.882;37.654;2022-08-30T09:17:51;98784.47;;;34.14;31.00
50672;BME280;46021;55.882;37.654;2022-08-30T09:20:28;98789.16;;;34.44;30.85
50672;BME280;46021;55.882;37.654;2022-08-30T09:22:55;98790.41;;;35.27;31.37
50672;BME280;46021;55.882;37.654;2022-08-30T09:25:25;98781.81;;;36.20;30.01
50672;BME280;46021;55.882;37.654;2022-08-30T09:27:54;98789.34;;;37.22;29.00
50672;BME280;46021;55.882;37.654;2022-08-30T09:30:22;98788.19;;;37.52;28.35
50672;BME280;46021;55.882;37.654;2022-08-30T09:32:51;98788.38;;;37.45;27.50
50672;BME280;46021;55.882;37.654;2022-08-30T09:35:21;98796.91;;;37.54;27.40
50672;BME280;46021;55.882;37.654;2022-08-30T09:37:53;98797.00;;;37.59;26.17
50672;BME280;46021;55.882;37.654;2022-08-30T09:40:27;98790.16;;;37.40;26.11
50672;BME280;46021;55.882;37.654;2022-08-30T09:42:59;98794.94;;;37.33;26.41
50672;BME280;46021;55.882;37.654;2022-08-30T09:45:29;98795.41;;;37.01;26.65
50672;BME280;46021;55.882;37.654;2022-08-30T09:47:57;98792.81;;;36.77;27.96
50672;BME280;46021;55.882;37.654;2022-08-30T09:50:26;98793.75;;;36.71;26.95
50672;BME280;46021;55.882;37.654;2022-08-30T09:53:04;98792.13;;;36.70;27.12
50672;BME280;46021;55.882;37.654;2022-08-30T09:56:01;98788.00;;;36.96;27.29
50672;BME280;46021;55.882;37.654;2022-08-30T09:58:42;98793.00;;;37.45;26.43
50672;BME280;46021;55.882;37.654;2022-08-30T10:01:14;98804.84;;;37.10;26.78
50672;BME280;46021;55.882;37.654;2022-08-30T10:03:51;98785.41;;;37.47;25.93
50672;BME280;46021;55.882;37.654;2022-08-30T10:06:28;98795.66;;;37.74;25.93
50672;BME280;46021;55.882;37.654;2022-08-30T10:09:09;98793.31;;;37.65;25.82
50672;BME280;46021;55.882;37.654;2022-08-30T10:11:44;98782.25;;;37.55;25.85
50672;BME280;46021;55.882;37.654;2022-08-30T10:14:28;98778.47;;;37.90;25.67
50672;BME280;46021;55.882;37.654;2022-08-30T10:17:02;98779.94;;;38.15;25.23
50672;BME280;46021;55.882;37.654;2022-08-30T10:19:42;98792.63;;;37.92;24.61
50672;BME280;46021;55.882;37.654;2022-08-30T10:22:14;98786.00;;;37.66;25.22
50672;BME280;46021;55.882;37.654;2022-08-30T10:24:50;98783.41;;;36.97;25.61
50672;BME280;46021;55.882;37.654;2022-08-30T10:27:21;98783.81;;;37.17;25.85
50672;BME280;46021;55.882;37.654;2022-08-30T10:29:54;98779.56;;;37.89;25.48
50672;BME280;46021;55.882;37.654;2022-08-30T10:32:28;98781.97;;;38.47;24.44
50672;BME280;46021;55.882;37.654;2022-08-30T10:35:02;98786.56;;;37.85;24.75
50672;BME280;46021;55.882;37.654;2022-08-30T10:37:34;98786.59;;;36.94;25.22
50672;BME280;46021;55.882;37.654;2022-08-30T10:40:12;98773.66;;;35.72;26.38
50672;BME280;46021;55.882;37.654;2022-08-30T10:43:01;98790.59;;;35.56;26.83
50672;BME280;46021;55.882;37.654;2022-08-30T10:45:32;98783.81;;;35.23;26.23
50672;BME280;46021;55.882;37.654;2022-08-30T10:48:08;98792.03;;;34.68;26.72
50672;BME280;46021;55.882;37.654;2022-08-30T10:50:41;98778.66;;;34.36;27.33
50672;BME280;46021;55.882;37.654;2022-08-30T10:53:12;98783.72;;;35.00;27.37
50672;BME280;46021;55.882;37.654;2022-08-30T10:55:46;98782.75;;;35.90;25.69
50672;BME280;46021;55.882;37.654;2022-08-30T10:58:15;98777.09;;;36.27;25.69
50672;BME280;46021;55.882;37.654;2022-08-30T11:00:53;98783.16;;;35.63;24.74
50672;BME280;46021;55.882;37.654;2022-08-30T11:03:43;98778.50;;;34.68;25.76
50672;BME280;46021;55.882;37.654;2022-08-30T11:06:20;98783.03;;;34.37;26.25
50672;BME280;46021;55.882;37.654;2022-08-30T11:09:03;98774.41;;;34.03;26.08
50672;BME280;46021;55.882;37.654;2022-08-30T11:11:41;98776.47;;;34.45;26.47
50672;BME280;46021;55.882;37.654;2022-08-30T11:14:16;98770.16;;;35.18;26.21
50672;BME280;46021;55.882;37.654;2022-08-30T11:16:46;98765.78;;;35.83;25.33
50672;BME280;46021;55.882;37.654;2022-08-30T11:19:16;98764.63;;;36.66;24.62
50672;BME280;46021;55.882;37.654;2022-08-30T11:21:44;98769.00;;;36.56;24.36
50672;BME280;46021;55.882;37.654;2022-08-30T11:24:13;98760.75;;;36.51;24.59
50672;BME280;46021;55.882;37.654;2022-08-30T11:26:59;98769.31;;;36.71;23.91
50672;BME280;46021;55.882;37.654;2022-08-30T11:29:40;98767.41;;;36.07;23.13
50672;BME280;46021;55.882;37.654;2022-08-30T11:35:41;98761.53;;;35.87;23.82
50672;BME280;46021;55.882;37.654;2022-08-30T11:38:16;98762.69;;;36.15;24.15
50672;BME280;46021;55.882;37.654;2022-08-30T11:40:49;98753.00;;;36.30;24.09
50672;BME280;46021;55.882;37.654;2022-08-30T11:43:49;98758.63;;;36.53;23.00
50672;BME280;46021;55.882;37.654;2022-08-30T11:46:18;98758.97;;;36.56;22.68
50672;BME280;46021;55.882;37.654;2022-08-30T11:48:50;98765.84;;;36.87;23.09
50672;BME280;46021;55.882;37.654;2022-08-30T11:51:39;98759.19;;;37.41;22.15
50672;BME280;46021;55.882;37.654;2022-08-30T11:54:22;98756.91;;;37.67;21.54
50672;BME280;46021;55.882;37.654;2022-08-30T11:57:00;98757.56;;;37.74;22.13
50672;BME280;46021;55.882;37.654;2022-08-30T12:00:03;98768.44;;;37.74;22.37
50672;BME280;46021;55.882;37.654;2022-08-30T12:02:51;98752.91;;;37.23;23.25
50672;BME280;46021;55.882;37.654;2022-08-30T12:08:49;98739.56;;;36.24;25.16
50672;BME280;46021;55.882;37.654;2022-08-30T12:11:52;98735.81;;;36.01;25.90
50672;BME280;46021;55.882;37.654;2022-08-30T12:14:47;98741.00;;;35.67;25.94
50672;BME280;46021;55.882;37.654;2022-08-30T12:17:21;98749.22;;;35.49;26.38
50672;BME280;46021;55.882;37.654;2022-08-30T12:20:39;98749.97;;;34.84;26.75
50672;BME280;46021;55.882;37.654;2022-08-30T12:23:16;98749.63;;;34.62;27.08
50672;BME280;46021;55.882;37.654;2022-08-30T12:25:43;98752.19;;;34.20;27.43
50672;BME280;46021;55.882;37.654;2022-08-30T12:28:15;98758.19;;;34.40;27.30
50672;BME280;46021;55.882;37.654;2022-08-30T12:30:43;98753.19;;;34.00;27.48
50672;BME280;46021;55.882;37.654;2022-08-30T12:33:13;98754.44;;;33.54;27.87
50672;BME280;46021;55.882;37.654;2022-08-30T12:35:48;98759.09;;;33.08;27.82
50672;BME280;46021;55.882;37.654;2022-08-30T12:38:20;98741.28;;;32.62;28.50
50672;BME280;46021;55.882;37.654;2022-08-30T12:40:54;98757.94;;;32.45;28.85
50672;BME280;46021;55.882;37.654;2022-08-30T12:43:25;98746.22;;;32.72;28.82
50672;BME280;46021;55.882;37.654;2022-08-30T12:45:54;98761.28;;;32.34;28.33
50672;BME280;46021;55.882;37.654;2022-08-30T12:48:28;98751.00;;;31.98;28.69
50672;BME280;46021;55.882;37.654;2022-08-30T12:51:00;98758.47;;;32.09;29.16
50672;BME280;46021;55.882;37.654;2022-08-30T12:53:31;98758.88;;;31.93;29.78
50672;BME280;46021;55.882;37.654;2022-08-30T12:56:01;98754.31;;;32.13;29.09
50672;BME280;46021;55.882;37.654;2022-08-30T12:58:37;98761.34;;;32.21;28.67
50672;BME280;46021;55.882;37.654;2022-08-30T13:01:25;98762.84;;;32.10;28.88
50672;BME280;46021;55.882;37.654;2022-08-30T13:04:20;98765.53;;;31.83;28.82
50672;BME280;46021;55.882;37.654;2022-08-30T13:06:49;98761.41;;;31.61;29.05
50672;BME280;46021;55.882;37.654;2022-08-30T13:09:25;98751.00;;;31.44;28.72
50672;BME280;46021;55.882;37.654;2022-08-30T13:11:52;98751.63;;;31.33;29.13